Terminal Aerodrome Forecast
Issued by NWS

Home | Current Version | Previous Version | Text Only | Print | Product List | Glossary On
Versions: 1 2 3 4 5 6 7 8 9 10 11 12 13 14 15 16 17
000
FTUS45 KGJT 192212 AAB
TAFDRO
TAF AMD
KDRO 192212Z 1922/2018 22020G32KT P6SM VCSH SCT050 SCT070 OVC090
      TEMPO 1922/2001 22028G42KT 5SM -SHRA BKN035 OVC070
     FM200100 25019G29KT 3SM -SHSNRA SCT020 OVC040
     FM200300 25020G32KT 3SM -SHSN SCT020 OVC040
     FM200500 25020G32KT 6SM -SHSN SCT020 OVC050
     FM201200 25016G26KT P6SM VCSH SCT025 BKN050=

USA.gov is the U.S. government's official web portal to all federal, state and local government web resources and services.